sensor_id;sensor_type;location;lat;lon;timestamp;pressure;altitude;pressure_sealevel;temperature;humidity
25498;BME280;13406;53.380;7.226;2024-02-14T00:00:02;101648.78;;;6.45;100.00
25498;BME280;13406;53.380;7.226;2024-02-14T00:02:28;101643.91;;;6.41;100.00
25498;BME280;13406;53.380;7.226;2024-02-14T00:04:54;101637.88;;;6.39;100.00
25498;BME280;13406;53.380;7.226;2024-02-14T00:07:20;101625.63;;;6.46;100.00
25498;BME280;13406;53.380;7.226;2024-02-14T00:09:47;101600.72;;;6.37;100.00
25498;BME280;13406;53.380;7.226;2024-02-14T00:12:15;101509.81;;;5.69;100.00
25498;BME280;13406;53.380;7.226;2024-02-14T00:14:40;101485.44;;;5.46;100.00
25498;BME280;13406;53.380;7.226;2024-02-14T00:17:06;101607.81;;;6.46;100.00
25498;BME280;13406;53.380;7.226;2024-02-14T00:19:32;101608.84;;;6.36;100.00
25498;BME280;13406;53.380;7.226;2024-02-14T00:21:57;101527.44;;;5.97;100.00
25498;BME280;13406;53.380;7.226;2024-02-14T00:24:23;101562.13;;;6.23;100.00
25498;BME280;13406;53.380;7.226;2024-02-14T00:26:52;101558.88;;;6.11;100.00
25498;BME280;13406;53.380;7.226;2024-02-14T00:29:17;101566.25;;;6.18;100.00
25498;BME280;13406;53.380;7.226;2024-02-14T00:31:43;101564.88;;;6.14;100.00
25498;BME280;13406;53.380;7.226;2024-02-14T00:34:10;101563.13;;;6.22;100.00
25498;BME280;13406;53.380;7.226;2024-02-14T00:36:36;101578.72;;;6.35;100.00
25498;BME280;13406;53.380;7.226;2024-02-14T00:39:01;101537.47;;;6.03;100.00
25498;BME280;13406;53.380;7.226;2024-02-14T00:41:27;101586.50;;;6.10;100.00
25498;BME280;13406;53.380;7.226;2024-02-14T00:43:55;101550.78;;;6.03;100.00
25498;BME280;13406;53.380;7.226;2024-02-14T00:46:21;101497.50;;;5.85;100.00
25498;BME280;13406;53.380;7.226;2024-02-14T00:48:47;101598.06;;;6.37;100.00
25498;BME280;13406;53.380;7.226;2024-02-14T00:51:12;101606.28;;;6.44;100.00
25498;BME280;13406;53.380;7.226;2024-02-14T00:53:38;101554.59;;;6.19;100.00
25498;BME280;13406;53.380;7.226;2024-02-14T00:56:03;101560.69;;;6.29;100.00
25498;BME280;13406;53.380;7.226;2024-02-14T00:58:29;101572.94;;;6.40;100.00
25498;BME280;13406;53.380;7.226;2024-02-14T01:00:54;101522.63;;;6.19;100.00
25498;BME280;13406;53.380;7.226;2024-02-14T01:03:20;101511.59;;;6.14;100.00
25498;BME280;13406;53.380;7.226;2024-02-14T01:05:46;101584.25;;;6.42;100.00
25498;BME280;13406;53.380;7.226;2024-02-14T01:08:12;101402.72;;;5.39;100.00
25498;BME280;13406;53.380;7.226;2024-02-14T01:10:38;101562.72;;;6.53;100.00
25498;BME280;13406;53.380;7.226;2024-02-14T01:13:03;101554.50;;;6.46;100.00
25498;BME280;13406;53.380;7.226;2024-02-14T01:15:30;101548.56;;;6.34;100.00
25498;BME280;13406;53.380;7.226;2024-02-14T01:17:55;101546.22;;;6.31;100.00
25498;BME280;13406;53.380;7.226;2024-02-14T01:20:21;101540.28;;;6.20;100.00
25498;BME280;13406;53.380;7.226;2024-02-14T01:22:46;101530.44;;;6.38;100.00
25498;BME280;13406;53.380;7.226;2024-02-14T01:25:12;101560.84;;;6.45;100.00
25498;BME280;13406;53.380;7.226;2024-02-14T01:27:38;101557.41;;;6.35;100.00
25498;BME280;13406;53.380;7.226;2024-02-14T01:30:04;101519.59;;;6.14;100.00
25498;BME280;13406;53.380;7.226;2024-02-14T01:32:30;101555.81;;;6.42;100.00
25498;BME280;13406;53.380;7.226;2024-02-14T01:34:56;101427.06;;;5.80;100.00
25498;BME280;13406;53.380;7.226;2024-02-14T01:37:22;101491.66;;;6.00;100.00
25498;BME280;13406;53.380;7.226;2024-02-14T01:39:47;101506.94;;;6.16;100.00
25498;BME280;13406;53.380;7.226;2024-02-14T01:42:13;101550.38;;;6.52;100.00
25498;BME280;13406;53.380;7.226;2024-02-14T01:44:38;101477.28;;;6.10;100.00
25498;BME280;13406;53.380;7.226;2024-02-14T01:47:04;101550.28;;;6.62;100.00
25498;BME280;13406;53.380;7.226;2024-02-14T01:49:31;101532.41;;;6.36;100.00
25498;BME280;13406;53.380;7.226;2024-02-14T01:51:59;101475.78;;;6.08;100.00
25498;BME280;13406;53.380;7.226;2024-02-14T01:54:27;101534.84;;;6.47;100.00
25498;BME280;13406;53.380;7.226;2024-02-14T01:56:53;101411.69;;;5.74;100.00
25498;BME280;13406;53.380;7.226;2024-02-14T01:59:20;101535.31;;;6.43;100.00
25498;BME280;13406;53.380;7.226;2024-02-14T02:01:45;101555.13;;;6.40;100.00
25498;BME280;13406;53.380;7.226;2024-02-14T02:04:12;101400.84;;;5.67;100.00
25498;BME280;13406;53.380;7.226;2024-02-14T02:06:37;101451.09;;;6.06;100.00
25498;BME280;13406;53.380;7.226;2024-02-14T02:09:03;101532.28;;;6.38;100.00
25498;BME280;13406;53.380;7.226;2024-02-14T02:11:29;101381.88;;;5.52;100.00
25498;BME280;13406;53.380;7.226;2024-02-14T02:13:55;101446.44;;;5.90;100.00
25498;BME280;13406;53.380;7.226;2024-02-14T02:16:21;101540.56;;;6.52;100.00
25498;BME280;13406;53.380;7.226;2024-02-14T02:18:47;101357.59;;;5.47;100.00
25498;BME280;13406;53.380;7.226;2024-02-14T02:21:14;101458.72;;;6.01;100.00
25498;BME280;13406;53.380;7.226;2024-02-14T02:23:40;101523.84;;;6.42;100.00
25498;BME280;13406;53.380;7.226;2024-02-14T02:26:10;101506.53;;;6.46;100.00
25498;BME280;13406;53.380;7.226;2024-02-14T02:28:36;101503.28;;;6.34;100.00
25498;BME280;13406;53.380;7.226;2024-02-14T02:31:02;101473.31;;;6.15;100.00
25498;BME280;13406;53.380;7.226;2024-02-14T02:33:27;101515.53;;;6.45;100.00
25498;BME280;13406;53.380;7.226;2024-02-14T02:35:53;101488.69;;;6.21;100.00
25498;BME280;13406;53.380;7.226;2024-02-14T02:38:18;101533.00;;;6.48;100.00
25498;BME280;13406;53.380;7.226;2024-02-14T02:40:45;101538.19;;;6.49;100.00
25498;BME280;13406;53.380;7.226;2024-02-14T02:43:10;101537.88;;;6.52;100.00
25498;BME280;13406;53.380;7.226;2024-02-14T02:45:36;101422.75;;;5.79;100.00
25498;BME280;13406;53.380;7.226;2024-02-14T02:48:01;101538.28;;;6.57;100.00
25498;BME280;13406;53.380;7.226;2024-02-14T02:50:27;101518.78;;;6.39;100.00
25498;BME280;13406;53.380;7.226;2024-02-14T02:52:53;101525.00;;;6.48;100.00
25498;BME280;13406;53.380;7.226;2024-02-14T02:55:20;101535.69;;;6.48;100.00
25498;BME280;13406;53.380;7.226;2024-02-14T02:57:45;101501.63;;;6.33;100.00
25498;BME280;13406;53.380;7.226;2024-02-14T03:00:11;101468.88;;;6.23;100.00
25498;BME280;13406;53.380;7.226;2024-02-14T03:02:38;101537.78;;;6.62;100.00
25498;BME280;13406;53.380;7.226;2024-02-14T03:05:06;101439.31;;;6.08;100.00
25498;BME280;13406;53.380;7.226;2024-02-14T03:07:36;101532.44;;;6.62;100.00
25498;BME280;13406;53.380;7.226;2024-02-14T03:10:02;101400.97;;;5.83;100.00
25498;BME280;13406;53.380;7.226;2024-02-14T03:12:29;101531.06;;;6.76;100.00
25498;BME280;13406;53.380;7.226;2024-02-14T03:14:56;101532.00;;;6.67;100.00
25498;BME280;13406;53.380;7.226;2024-02-14T03:17:23;101386.69;;;5.84;100.00
25498;BME280;13406;53.380;7.226;2024-02-14T03:19:49;101427.66;;;6.09;100.00
25498;BME280;13406;53.380;7.226;2024-02-14T03:22:17;101391.94;;;5.94;100.00
25498;BME280;13406;53.380;7.226;2024-02-14T03:24:44;101519.75;;;6.82;100.00
25498;BME280;13406;53.380;7.226;2024-02-14T03:27:12;101524.13;;;6.91;100.00
25498;BME280;13406;53.380;7.226;2024-02-14T03:29:37;101461.44;;;6.53;100.00
25498;BME280;13406;53.380;7.226;2024-02-14T03:32:07;101469.94;;;6.56;100.00
25498;BME280;13406;53.380;7.226;2024-02-14T03:34:33;101515.09;;;6.84;100.00
25498;BME280;13406;53.380;7.226;2024-02-14T03:37:01;101512.59;;;6.83;100.00
25498;BME280;13406;53.380;7.226;2024-02-14T03:39:28;101517.50;;;6.95;100.00
25498;BME280;13406;53.380;7.226;2024-02-14T03:41:53;101434.25;;;6.49;100.00
25498;BME280;13406;53.380;7.226;2024-02-14T03:44:19;101412.50;;;6.36;100.00
25498;BME280;13406;53.380;7.226;2024-02-14T03:46:45;101386.03;;;6.08;100.00
25498;BME280;13406;53.380;7.226;2024-02-14T03:49:12;101414.34;;;6.36;100.00
25498;BME280;13406;53.380;7.226;2024-02-14T03:51:37;101535.41;;;7.03;100.00
25498;BME280;13406;53.380;7.226;2024-02-14T03:54:03;101538.66;;;6.97;100.00
25498;BME280;13406;53.380;7.226;2024-02-14T03:56:28;101499.69;;;6.70;100.00
25498;BME280;13406;53.380;7.226;2024-02-14T03:58:55;101537.13;;;6.86;100.00
25498;BME280;13406;53.380;7.226;2024-02-14T04:01:20;101559.34;;;6.95;100.00
25498;BME280;13406;53.380;7.226;2024-02-14T04:03:46;101569.75;;;7.06;100.00
25498;BME280;13406;53.380;7.226;2024-02-14T04:06:13;101421.50;;;6.09;100.00
25498;BME280;13406;53.380;7.226;2024-02-14T04:08:39;101580.44;;;7.06;100.00
25498;BME280;13406;53.380;7.226;2024-02-14T04:11:04;101588.25;;;7.08;100.00
25498;BME280;13406;53.380;7.226;2024-02-14T04:13:30;101548.19;;;6.73;100.00
25498;BME280;13406;53.380;7.226;2024-02-14T04:15:55;101587.22;;;7.00;100.00
25498;BME280;13406;53.380;7.226;2024-02-14T04:18:21;101533.34;;;6.71;100.00
25498;BME280;13406;53.380;7.226;2024-02-14T04:20:46;101565.88;;;6.74;100.00
25498;BME280;13406;53.380;7.226;2024-02-14T04:23:12;101561.84;;;6.70;100.00
25498;BME280;13406;53.380;7.226;2024-02-14T04:25:37;101581.53;;;6.95;100.00
25498;BME280;13406;53.380;7.226;2024-02-14T04:28:03;101562.78;;;6.87;100.00
25498;BME280;13406;53.380;7.226;2024-02-14T04:30:28;101620.66;;;7.13;100.00
25498;BME280;13406;53.380;7.226;2024-02-14T04:32:54;101636.72;;;7.21;100.00
25498;BME280;13406;53.380;7.226;2024-02-14T04:35:22;101616.56;;;7.00;100.00
25498;BME280;13406;53.380;7.226;2024-02-14T04:37:48;101630.44;;;7.04;100.00
25498;BME280;13406;53.380;7.226;2024-02-14T04:40:14;101601.28;;;6.85;100.00
25498;BME280;13406;53.380;7.226;2024-02-14T04:42:41;101651.66;;;7.14;100.00
25498;BME280;13406;53.380;7.226;2024-02-14T04:45:07;101662.59;;;7.29;100.00
25498;BME280;13406;53.380;7.226;2024-02-14T04:47:33;101628.91;;;7.01;100.00
25498;BME280;13406;53.380;7.226;2024-02-14T04:49:59;101668.88;;;7.19;100.00
25498;BME280;13406;53.380;7.226;2024-02-14T04:52:26;101584.31;;;6.68;100.00
25498;BME280;13406;53.380;7.226;2024-02-14T04:54:52;101622.09;;;6.81;100.00
25498;BME280;13406;53.380;7.226;2024-02-14T04:57:17;101603.66;;;6.70;100.00
25498;BME280;13406;53.380;7.226;2024-02-14T04:59:45;101718.56;;;7.38;100.00
25498;BME280;13406;53.380;7.226;2024-02-14T05:02:10;101695.25;;;7.22;100.00
25498;BME280;13406;53.380;7.226;2024-02-14T05:04:36;101728.41;;;7.38;100.00
25498;BME280;13406;53.380;7.226;2024-02-14T05:07:03;101721.38;;;7.37;100.00
25498;BME280;13406;53.380;7.226;2024-02-14T05:09:29;101661.84;;;6.92;100.00
25498;BME280;13406;53.380;7.226;2024-02-14T05:11:54;101735.16;;;7.50;100.00
25498;BME280;13406;53.380;7.226;2024-02-14T05:14:20;101502.66;;;5.87;100.00
25498;BME280;13406;53.380;7.226;2024-02-14T05:16:45;101727.53;;;7.37;100.00
25498;BME280;13406;53.380;7.226;2024-02-14T05:19:11;101756.97;;;7.45;100.00
25498;BME280;13406;53.380;7.226;2024-02-14T05:21:37;101741.28;;;7.24;100.00
25498;BME280;13406;53.380;7.226;2024-02-14T05:24:03;101766.19;;;7.51;100.00
25498;BME280;13406;53.380;7.226;2024-02-14T05:26:29;101683.78;;;7.04;100.00
25498;BME280;13406;53.380;7.226;2024-02-14T05:28:55;101721.63;;;7.25;100.00
25498;BME280;13406;53.380;7.226;2024-02-14T05:31:20;101788.59;;;7.58;100.00
25498;BME280;13406;53.380;7.226;2024-02-14T05:33:45;101775.19;;;7.50;100.00
25498;BME280;13406;53.380;7.226;2024-02-14T05:36:11;101801.78;;;7.60;100.00
25498;BME280;13406;53.380;7.226;2024-02-14T05:38:36;101757.38;;;7.33;100.00
25498;BME280;13406;53.380;7.226;2024-02-14T05:41:02;101810.63;;;7.60;100.00
25498;BME280;13406;53.380;7.226;2024-02-14T05:43:27;101785.69;;;7.52;100.00
25498;BME280;13406;53.380;7.226;2024-02-14T05:45:52;101805.16;;;7.62;100.00
25498;BME280;13406;53.380;7.226;2024-02-14T05:48:19;101827.09;;;7.74;100.00
25498;BME280;13406;53.380;7.226;2024-02-14T05:50:45;101856.47;;;7.74;100.00
25498;BME280;13406;53.380;7.226;2024-02-14T05:53:10;101833.88;;;7.68;100.00
25498;BME280;13406;53.380;7.226;2024-02-14T05:55:38;101833.06;;;7.67;100.00
25498;BME280;13406;53.380;7.226;2024-02-14T05:58:03;101803.72;;;7.50;100.00
25498;BME280;13406;53.380;7.226;2024-02-14T06:00:29;101861.81;;;7.74;100.00
25498;BME280;13406;53.380;7.226;2024-02-14T06:02:54;101747.47;;;7.25;100.00
25498;BME280;13406;53.380;7.226;2024-02-14T06:05:20;101855.72;;;7.89;100.00
25498;BME280;13406;53.380;7.226;2024-02-14T06:07:45;101853.75;;;7.91;100.00
25498;BME280;13406;53.380;7.226;2024-02-14T06:10:11;101849.72;;;7.87;100.00
25498;BME280;13406;53.380;7.226;2024-02-14T06:12:37;101769.25;;;7.38;100.00
25498;BME280;13406;53.380;7.226;2024-02-14T06:15:05;101847.59;;;7.91;100.00
25498;BME280;13406;53.380;7.226;2024-02-14T06:17:30;101722.16;;;7.11;100.00
25498;BME280;13406;53.380;7.226;2024-02-14T06:19:58;101815.72;;;7.72;100.00
25498;BME280;13406;53.380;7.226;2024-02-14T06:22:23;101856.94;;;7.95;100.00
25498;BME280;13406;53.380;7.226;2024-02-14T06:24:49;101877.44;;;8.12;100.00
25498;BME280;13406;53.380;7.226;2024-02-14T06:27:15;101812.38;;;7.69;100.00
25498;BME280;13406;53.380;7.226;2024-02-14T06:29:44;101900.84;;;8.19;100.00
25498;BME280;13406;53.380;7.226;2024-02-14T06:32:12;101793.72;;;7.52;100.00
25498;BME280;13406;53.380;7.226;2024-02-14T06:34:38;101902.94;;;8.25;100.00
25498;BME280;13406;53.380;7.226;2024-02-14T06:37:03;101913.75;;;8.23;100.00
25498;BME280;13406;53.380;7.226;2024-02-14T06:39:29;101797.75;;;7.56;100.00
25498;BME280;13406;53.380;7.226;2024-02-14T06:41:55;101916.28;;;8.25;100.00
25498;BME280;13406;53.380;7.226;2024-02-14T06:44:23;101897.66;;;8.15;100.00
25498;BME280;13406;53.380;7.226;2024-02-14T06:46:48;101792.94;;;7.59;100.00
25498;BME280;13406;53.380;7.226;2024-02-14T06:49:15;101753.19;;;7.30;100.00
25498;BME280;13406;53.380;7.226;2024-02-14T06:51:40;101928.25;;;8.38;100.00
25498;BME280;13406;53.380;7.226;2024-02-14T06:54:06;101925.94;;;8.44;100.00
25498;BME280;13406;53.380;7.226;2024-02-14T06:56:31;101850.38;;;8.07;100.00
25498;BME280;13406;53.380;7.226;2024-02-14T06:58:57;101790.91;;;7.53;100.00
25498;BME280;13406;53.380;7.226;2024-02-14T07:01:26;101885.25;;;8.06;100.00
25498;BME280;13406;53.380;7.226;2024-02-14T07:03:52;101845.91;;;7.90;100.00
25498;BME280;13406;53.380;7.226;2024-02-14T07:06:18;101907.63;;;8.31;100.00
25498;BME280;13406;53.380;7.226;2024-02-14T07:08:44;101931.81;;;8.47;100.00
25498;BME280;13406;53.380;7.226;2024-02-14T07:11:10;101849.09;;;7.93;100.00
25498;BME280;13406;53.380;7.226;2024-02-14T07:13:36;101939.69;;;8.49;100.00
25498;BME280;13406;53.380;7.226;2024-02-14T07:16:01;101877.66;;;8.19;100.00
25498;BME280;13406;53.380;7.226;2024-02-14T07:18:27;101933.56;;;8.56;100.00
25498;BME280;13406;53.380;7.226;2024-02-14T07:20:52;101913.06;;;8.39;100.00
25498;BME280;13406;53.380;7.226;2024-02-14T07:23:19;101904.41;;;8.45;100.00
25498;BME280;13406;53.380;7.226;2024-02-14T07:25:44;101926.75;;;8.62;100.00
25498;BME280;13406;53.380;7.226;2024-02-14T07:28:10;101934.78;;;8.70;100.00
25498;BME280;13406;53.380;7.226;2024-02-14T07:30:36;101834.34;;;8.15;100.00
25498;BME280;13406;53.380;7.226;2024-02-14T07:33:01;101895.25;;;8.48;100.00
25498;BME280;13406;53.380;7.226;2024-02-14T07:35:26;101938.91;;;8.65;100.00
25498;BME280;13406;53.380;7.226;2024-02-14T07:37:52;101910.91;;;8.43;100.00
25498;BME280;13406;53.380;7.226;2024-02-14T07:40:18;101954.00;;;8.66;100.00
25498;BME280;13406;53.380;7.226;2024-02-14T07:42:43;101917.28;;;8.50;100.00
25498;BME280;13406;53.380;7.226;2024-02-14T07:45:09;101885.81;;;8.18;100.00
25498;BME280;13406;53.380;7.226;2024-02-14T07:47:34;101976.91;;;8.68;100.00
25498;BME280;13406;53.380;7.226;2024-02-14T07:50:00;101899.88;;;8.20;100.00
25498;BME280;13406;53.380;7.226;2024-02-14T07:52:25;102000.50;;;8.73;100.00
25498;BME280;13406;53.380;7.226;2024-02-14T07:54:54;101961.13;;;8.57;100.00
25498;BME280;13406;53.380;7.226;2024-02-14T07:57:22;101921.00;;;8.31;100.00
25498;BME280;13406;53.380;7.226;2024-02-14T07:59:47;101997.03;;;8.80;100.00
25498;BME280;13406;53.380;7.226;2024-02-14T08:02:13;101938.63;;;8.42;100.00
25498;BME280;13406;53.380;7.226;2024-02-14T08:04:38;101922.13;;;8.46;100.00
25498;BME280;13406;53.380;7.226;2024-02-14T08:07:04;101898.28;;;8.35;100.00
25498;BME280;13406;53.380;7.226;2024-02-14T08:09:29;102021.78;;;9.09;100.00
25498;BME280;13406;53.380;7.226;2024-02-14T08:11:55;101909.22;;;8.42;100.00
25498;BME280;13406;53.380;7.226;2024-02-14T08:14:20;101987.09;;;8.99;100.00
25498;BME280;13406;53.380;7.226;2024-02-14T08:16:46;101851.41;;;8.14;100.00
25498;BME280;13406;53.380;7.226;2024-02-14T08:19:11;101960.78;;;8.86;100.00
25498;BME280;13406;53.380;7.226;2024-02-14T08:21:37;101978.41;;;9.05;100.00
25498;BME280;13406;53.380;7.226;2024-02-14T08:24:02;101997.22;;;9.21;100.00
25498;BME280;13406;53.380;7.226;2024-02-14T08:26:28;101986.00;;;9.18;100.00
25498;BME280;13406;53.380;7.226;2024-02-14T08:28:53;101893.31;;;8.66;100.00
25498;BME280;13406;53.380;7.226;2024-02-14T08:31:20;101922.31;;;8.87;100.00
25498;BME280;13406;53.380;7.226;2024-02-14T08:33:45;101871.22;;;8.64;100.00
25498;BME280;13406;53.380;7.226;2024-02-14T08:36:10;101975.19;;;9.36;100.00
25498;BME280;13406;53.380;7.226;2024-02-14T08:38:36;101801.91;;;8.36;100.00
25498;BME280;13406;53.380;7.226;2024-02-14T08:41:02;101959.59;;;9.31;100.00
25498;BME280;13406;53.380;7.226;2024-02-14T08:43:28;101857.03;;;8.64;100.00
25498;BME280;13406;53.380;7.226;2024-02-14T08:45:54;101934.97;;;9.19;100.00
25498;BME280;13406;53.380;7.226;2024-02-14T08:48:20;101938.47;;;9.20;100.00
25498;BME280;13406;53.380;7.226;2024-02-14T08:50:46;101922.25;;;9.13;100.00
25498;BME280;13406;53.380;7.226;2024-02-14T08:53:12;101912.91;;;9.17;100.00
25498;BME280;13406;53.380;7.226;2024-02-14T08:55:41;101944.75;;;9.45;100.00
25498;BME280;13406;53.380;7.226;2024-02-14T08:58:07;101903.72;;;9.36;100.00
25498;BME280;13406;53.380;7.226;2024-02-14T09:00:37;101903.06;;;9.42;100.00
25498;BME280;13406;53.380;7.226;2024-02-14T09:03:04;101912.97;;;9.50;100.00
25498;BME280;13406;53.380;7.226;2024-02-14T09:05:32;101856.34;;;9.12;100.00
25498;BME280;13406;53.380;7.226;2024-02-14T09:07:58;101902.25;;;9.50;100.00
25498;BME280;13406;53.380;7.226;2024-02-14T09:10:24;101795.03;;;8.76;100.00
25498;BME280;13406;53.380;7.226;2024-02-14T09:12:49;101936.06;;;9.59;100.00
25498;BME280;13406;53.380;7.226;2024-02-14T09:15:15;101928.03;;;9.67;100.00
25498;BME280;13406;53.380;7.226;2024-02-14T09:17:41;101898.41;;;9.53;100.00
25498;BME280;13406;53.380;7.226;2024-02-14T09:20:09;101862.72;;;9.27;100.00
25498;BME280;13406;53.380;7.226;2024-02-14T09:22:37;101878.97;;;9.50;100.00
25498;BME280;13406;53.380;7.226;2024-02-14T09:25:04;101900.25;;;9.68;100.00
25498;BME280;13406;53.380;7.226;2024-02-14T09:27:32;101874.81;;;9.72;100.00
25498;BME280;13406;53.380;7.226;2024-02-14T09:29:58;101871.78;;;9.76;100.00
25498;BME280;13406;53.380;7.226;2024-02-14T09:32:24;101826.72;;;9.63;100.00
25498;BME280;13406;53.380;7.226;2024-02-14T09:34:50;101788.75;;;9.43;100.00
25498;BME280;13406;53.380;7.226;2024-02-14T09:37:16;101802.31;;;9.58;100.00
25498;BME280;13406;53.380;7.226;2024-02-14T09:39:44;101760.66;;;9.39;100.00
25498;BME280;13406;53.380;7.226;2024-02-14T09:42:13;101813.69;;;9.76;100.00
25498;BME280;13406;53.380;7.226;2024-02-14T09:44:40;101826.88;;;9.78;100.00
25498;BME280;13406;53.380;7.226;2024-02-14T09:47:06;101824.88;;;9.80;100.00
25498;BME280;13406;53.380;7.226;2024-02-14T09:49:34;101786.06;;;9.59;100.00
25498;BME280;13406;53.380;7.226;2024-02-14T09:52:02;101801.13;;;9.68;100.00
25498;BME280;13406;53.380;7.226;2024-02-14T09:54:31;101822.34;;;9.86;100.00
25498;BME280;13406;53.380;7.226;2024-02-14T09:56:59;101821.19;;;9.89;100.00
25498;BME280;13406;53.380;7.226;2024-02-14T09:59:25;101824.69;;;9.98;100.00
25498;BME280;13406;53.380;7.226;2024-02-14T10:01:51;101808.44;;;9.99;100.00
25498;BME280;13406;53.380;7.226;2024-02-14T10:04:18;101790.75;;;9.73;100.00
25498;BME280;13406;53.380;7.226;2024-02-14T10:06:44;101809.13;;;9.93;100.00
25498;BME280;13406;53.380;7.226;2024-02-14T10:09:10;101810.31;;;9.90;100.00
25498;BME280;13406;53.380;7.226;2024-02-14T10:11:36;101816.34;;;9.92;100.00
25498;BME280;13406;53.380;7.226;2024-02-14T10:14:02;101773.63;;;9.83;100.00
25498;BME280;13406;53.380;7.226;2024-02-14T10:16:29;101806.44;;;10.01;100.00
25498;BME280;13406;53.380;7.226;2024-02-14T10:18:54;101813.13;;;10.05;100.00
25498;BME280;13406;53.380;7.226;2024-02-14T10:21:21;101817.31;;;10.08;100.00
25498;BME280;13406;53.380;7.226;2024-02-14T10:23:47;101816.13;;;10.02;100.00
25498;BME280;13406;53.380;7.226;2024-02-14T10:26:17;101814.81;;;9.98;100.00
25498;BME280;13406;53.380;7.226;2024-02-14T10:28:43;101808.66;;;9.89;100.00
25498;BME280;13406;53.380;7.226;2024-02-14T10:31:10;101814.16;;;9.80;100.00
25498;BME280;13406;53.380;7.226;2024-02-14T10:33:36;101862.38;;;10.04;100.00
25498;BME280;13406;53.380;7.226;2024-02-14T10:36:01;101881.81;;;9.98;100.00
25498;BME280;13406;53.380;7.226;2024-02-14T10:38:31;101863.75;;;9.67;100.00
25498;BME280;13406;53.380;7.226;2024-02-14T10:40:59;101896.72;;;10.01;100.00
25498;BME280;13406;53.380;7.226;2024-02-14T10:43:28;101907.78;;;10.06;100.00
25498;BME280;13406;53.380;7.226;2024-02-14T10:45:59;101905.09;;;10.06;100.00
25498;BME280;13406;53.380;7.226;2024-02-14T10:48:28;101848.16;;;9.63;100.00
25498;BME280;13406;53.380;7.226;2024-02-14T10:50:57;101907.44;;;10.01;100.00
25498;BME280;13406;53.380;7.226;2024-02-14T10:53:25;101854.34;;;9.80;100.00
25498;BME280;13406;53.380;7.226;2024-02-14T10:55:54;101778.22;;;9.41;100.00
25498;BME280;13406;53.380;7.226;2024-02-14T10:58:23;101872.78;;;9.99;100.00
25498;BME280;13406;53.380;7.226;2024-02-14T11:00:50;101889.19;;;9.96;100.00
25498;BME280;13406;53.380;7.226;2024-02-14T11:03:17;101840.66;;;9.66;100.00
25498;BME280;13406;53.380;7.226;2024-02-14T11:05:46;101813.53;;;9.45;100.00
25498;BME280;13406;53.380;7.226;2024-02-14T11:08:18;101896.91;;;9.99;100.00
25498;BME280;13406;53.380;7.226;2024-02-14T11:10:53;101841.47;;;9.50;100.00
25498;BME280;13406;53.380;7.226;2024-02-14T11:13:19;101833.44;;;9.59;100.00
25498;BME280;13406;53.380;7.226;2024-02-14T11:15:44;101878.31;;;9.89;100.00
25498;BME280;13406;53.380;7.226;2024-02-14T11:18:10;101913.63;;;10.17;100.00
25498;BME280;13406;53.380;7.226;2024-02-14T11:20:36;101760.66;;;9.31;100.00
25498;BME280;13406;53.380;7.226;2024-02-14T11:23:02;101901.38;;;10.15;100.00
25498;BME280;13406;53.380;7.226;2024-02-14T11:25:33;101900.41;;;10.16;100.00
25498;BME280;13406;53.380;7.226;2024-02-14T11:28:15;101894.69;;;10.11;100.00
25498;BME280;13406;53.380;7.226;2024-02-14T11:30:41;101835.59;;;9.80;100.00
25498;BME280;13406;53.380;7.226;2024-02-14T11:33:18;101906.41;;;10.18;100.00
25498;BME280;13406;53.380;7.226;2024-02-14T11:35:48;101897.22;;;10.04;100.00
25498;BME280;13406;53.380;7.226;2024-02-14T11:38:21;101919.50;;;10.13;100.00
25498;BME280;13406;53.380;7.226;2024-02-14T11:40:47;101900.91;;;9.95;100.00
25498;BME280;13406;53.380;7.226;2024-02-14T11:43:18;101919.50;;;10.13;100.00
25498;BME280;13406;53.380;7.226;2024-02-14T11:45:44;101928.38;;;10.05;100.00
25498;BME280;13406;53.380;7.226;2024-02-14T11:48:12;101946.81;;;10.08;100.00
25498;BME280;13406;53.380;7.226;2024-02-14T11:50:39;101965.91;;;10.13;100.00
25498;BME280;13406;53.380;7.226;2024-02-14T11:53:06;101987.19;;;10.15;100.00
25498;BME280;13406;53.380;7.226;2024-02-14T11:55:34;101985.34;;;10.15;100.00
25498;BME280;13406;53.380;7.226;2024-02-14T11:58:02;101923.19;;;9.71;100.00
25498;BME280;13406;53.380;7.226;2024-02-14T12:00:27;101997.41;;;10.11;100.00
25498;BME280;13406;53.380;7.226;2024-02-14T12:02:53;101994.72;;;10.11;100.00
25498;BME280;13406;53.380;7.226;2024-02-14T12:05:19;101998.75;;;10.07;100.00
25498;BME280;13406;53.380;7.226;2024-02-14T12:07:45;102035.81;;;10.28;100.00
25498;BME280;13406;53.380;7.226;2024-02-14T12:10:11;101915.31;;;9.53;100.00
25498;BME280;13406;53.380;7.226;2024-02-14T12:12:38;102039.50;;;10.27;100.00
25498;BME280;13406;53.380;7.226;2024-02-14T12:15:03;101992.69;;;9.89;100.00
25498;BME280;13406;53.380;7.226;2024-02-14T12:17:31;102059.41;;;10.16;100.00
25498;BME280;13406;53.380;7.226;2024-02-14T12:20:10;102076.34;;;10.25;100.00
25498;BME280;13406;53.380;7.226;2024-02-14T12:22:39;101988.31;;;9.63;100.00
25498;BME280;13406;53.380;7.226;2024-02-14T12:25:06;102084.03;;;10.20;100.00
25498;BME280;13406;53.380;7.226;2024-02-14T12:27:33;102110.41;;;10.33;100.00
25498;BME280;13406;53.380;7.226;2024-02-14T12:30:03;102108.69;;;10.15;100.00
25498;BME280;13406;53.380;7.226;2024-02-14T12:32:29;101992.81;;;9.46;100.00
25498;BME280;13406;53.380;7.226;2024-02-14T12:34:58;102107.97;;;9.97;100.00
25498;BME280;13406;53.380;7.226;2024-02-14T12:37:24;102096.38;;;9.88;100.00
25498;BME280;13406;53.380;7.226;2024-02-14T12:39:49;102068.00;;;9.61;100.00
25498;BME280;13406;53.380;7.226;2024-02-14T12:42:15;102042.19;;;9.52;100.00